Time;durP1;ratioP1;P1;durP2;ratioP2;P2;SDS_P1;SDS_P2;PMS_P1;PMS_P2;Temp;Humidity;BMP_temperature;BMP_pressure;BME280_temperature;BME280_humidity;BME280_pressure;Samples;Min_cycle;Max_cycle;Signal;HPM_P1;HPM_P2
2023/05/27 00:00:47;;;;;;;1.50;1.50;;;;;;;16.13;100.00;96830.06;5086401;28;20062;-58
2023/05/27 00:03:13;;;;;;;1.50;1.50;;;;;;;16.63;100.00;96889.97;5086292;28;20044;-57
2023/05/27 00:05:40;;;;;;;1.40;1.40;;;;;;;16.54;100.00;96881.25;5086414;28;20048;-59
2023/05/27 00:08:07;;;;;;;1.55;1.55;;;;;;;16.52;100.00;96877.28;5085916;28;20055;-57
2023/05/27 00:10:34;;;;;;;1.35;1.35;;;;;;;16.60;100.00;96885.19;5085873;28;20051;-58
2023/05/27 00:13:00;;;;;;;1.45;1.45;;;;;;;16.14;100.00;96786.94;5085937;28;20144;-57
2023/05/27 00:15:27;;;;;;;1.65;1.65;;;;;;;16.73;100.00;96887.47;5085967;28;20434;-57
2023/05/27 00:17:54;;;;;;;1.42;1.42;;;;;;;16.60;100.00;96879.59;5094323;28;20040;-57
2023/05/27 00:20:22;;;;;;;1.67;1.67;;;;;;;16.57;100.00;96872.03;5106351;28;20055;-56
2023/05/27 00:22:50;;;;;;;1.60;1.60;;;;;;;16.52;100.00;96878.06;5104757;28;20070;-57
2023/05/27 00:25:20;;;;;;;1.50;1.50;;;;;;;16.58;100.00;96859.63;5106238;28;20051;-57
2023/05/27 00:27:47;;;;;;;1.50;1.50;;;;;;;16.62;100.00;96876.38;5104398;28;20484;-58
2023/05/27 00:30:15;;;;;;;1.70;1.70;;;;;;;16.66;100.00;96873.56;5104521;28;20054;-57
2023/05/27 00:32:42;;;;;;;1.40;1.40;;;;;;;16.41;100.00;96860.56;5105669;27;20337;-57
2023/05/27 00:35:10;;;;;;;1.65;1.65;;;;;;;16.04;100.00;96789.81;5105583;28;20075;-57
2023/05/27 00:37:37;;;;;;;1.50;1.50;;;;;;;16.21;100.00;96800.84;5104292;28;20429;-57
2023/05/27 00:40:05;;;;;;;1.38;1.38;;;;;;;16.54;100.00;96842.09;5106179;27;20080;-57
2023/05/27 00:42:31;;;;;;;1.50;1.50;;;;;;;16.44;100.00;96834.59;5105294;28;20062;-57
2023/05/27 00:44:58;;;;;;;1.52;1.52;;;;;;;16.49;100.00;96822.97;5106017;28;20054;-56
2023/05/27 00:47:29;;;;;;;1.50;1.50;;;;;;;16.52;100.00;96832.53;5105349;27;20058;-57
2023/05/27 00:49:56;;;;;;;1.40;1.40;;;;;;;16.48;100.00;96815.81;5106039;28;20140;-57
2023/05/27 00:52:24;;;;;;;1.40;1.40;;;;;;;16.46;100.00;96807.03;5105183;27;20514;-56
2023/05/27 00:54:53;;;;;;;1.48;1.48;;;;;;;16.23;100.00;96759.28;5105778;28;20059;-58
2023/05/27 00:57:19;;;;;;;1.42;1.42;;;;;;;16.69;100.00;96819.59;5103409;28;20570;-57
2023/05/27 00:59:46;;;;;;;1.60;1.60;;;;;;;16.68;100.00;96806.81;5105257;28;20054;-58
2023/05/27 01:02:14;;;;;;;1.40;1.40;;;;;;;16.54;100.00;96802.97;5104992;28;20059;-57
2023/05/27 01:04:42;;;;;;;1.60;1.60;;;;;;;16.60;100.00;96826.47;5103857;28;20055;-58
2023/05/27 01:07:46;;;;;;;1.30;1.30;;;;;;;16.58;100.00;96808.53;5104824;28;20044;-57
2023/05/27 01:10:54;;;;;;;1.60;1.60;;;;;;;16.47;100.00;96799.44;5105291;28;20422;-57
2023/05/27 01:13:33;;;;;;;1.58;1.58;;;;;;;16.52;100.00;96794.19;5081416;28;20048;-58
2023/05/27 01:16:05;;;;;;;1.50;1.50;;;;;;;16.39;100.00;96758.75;5102372;28;20059;-59
2023/05/27 01:18:35;;;;;;;1.30;1.30;;;;;;;16.67;100.00;96794.03;5091362;28;20043;-56
2023/05/27 01:21:09;;;;;;;1.40;1.40;;;;;;;16.55;100.00;96790.56;5084424;28;20113;-57
2023/05/27 01:23:38;;;;;;;1.60;1.60;;;;;;;16.58;100.00;96798.09;5084548;28;20048;-56
2023/05/27 01:26:05;;;;;;;1.50;1.50;;;;;;;16.34;100.00;96754.38;5085061;28;20048;-56
2023/05/27 01:28:32;;;;;;;1.50;1.50;;;;;;;16.20;100.00;96745.38;5082635;28;20598;-57
2023/05/27 01:31:35;;;;;;;1.45;1.45;;;;;;;16.60;100.00;96786.50;5084317;28;20570;-56
2023/05/27 01:34:10;;;;;;;1.33;1.33;;;;;;;16.51;100.00;96784.22;5072653;28;20506;-57
2023/05/27 01:36:47;;;;;;;1.50;1.50;;;;;;;16.51;100.00;96781.41;5084563;28;20064;-57
2023/05/27 01:39:15;;;;;;;1.40;1.40;;;;;;;16.48;100.00;96779.47;5084534;28;20048;-57
2023/05/27 01:41:43;;;;;;;1.23;1.23;;;;;;;16.59;100.00;96788.53;5082844;28;20052;-57
2023/05/27 01:44:10;;;;;;;1.30;1.30;;;;;;;15.80;100.00;96758.09;5084220;28;20056;-56
2023/05/27 01:46:37;;;;;;;1.40;1.40;;;;;;;16.26;100.00;96797.63;5084351;28;20060;-58
2023/05/27 01:49:04;;;;;;;1.60;1.60;;;;;;;16.09;100.00;96748.25;5083757;28;20137;-57
2023/05/27 01:51:31;;;;;;;1.42;1.42;;;;;;;16.51;100.00;96787.00;5084011;28;20150;-57
2023/05/27 01:53:57;;;;;;;1.40;1.40;;;;;;;16.60;100.00;96790.09;5084120;28;20260;-57
2023/05/27 01:56:24;;;;;;;1.45;1.45;;;;;;;16.60;100.00;96795.69;5083697;28;20150;-57
2023/05/27 01:58:51;;;;;;;1.58;1.58;;;;;;;16.72;100.00;96782.41;5083837;28;20418;-56
2023/05/27 02:01:18;;;;;;;1.60;1.60;;;;;;;16.72;100.00;96786.00;5084067;28;20078;-58
2023/05/27 02:03:44;;;;;;;1.40;1.40;;;;;;;16.67;100.00;96794.03;5082883;28;20409;-57
2023/05/27 02:06:11;;;;;;;1.45;1.45;;;;;;;16.71;100.00;96789.97;5082597;28;20859;-57
2023/05/27 02:08:38;;;;;;;1.50;1.50;;;;;;;16.76;100.00;96802.72;5084169;28;20056;-56
2023/05/27 02:11:05;;;;;;;1.48;1.48;;;;;;;16.83;100.00;96786.66;5083833;28;20131;-57
2023/05/27 02:13:32;;;;;;;1.40;1.40;;;;;;;16.81;100.00;96777.88;5083646;28;20055;-58
2023/05/27 02:15:58;;;;;;;1.63;1.63;;;;;;;16.56;100.00;96764.19;5082011;28;20051;-57
2023/05/27 02:18:25;;;;;;;1.50;1.50;;;;;;;16.74;100.00;96793.97;5095703;28;20348;-57
2023/05/27 02:20:52;;;;;;;1.63;1.63;;;;;;;16.87;100.00;96775.41;5104224;28;20503;-57
2023/05/27 02:23:18;;;;;;;1.52;1.52;;;;;;;16.97;99.20;96785.69;5103999;28;20066;-58
2023/05/27 02:25:45;;;;;;;1.67;1.67;;;;;;;16.28;98.92;96669.41;5104491;28;20411;-58
2023/05/27 02:28:12;;;;;;;1.70;1.70;;;;;;;16.90;99.74;96783.78;5103890;28;20056;-57
2023/05/27 02:30:39;;;;;;;1.40;1.40;;;;;;;16.84;98.98;96770.66;5102794;28;20044;-56
2023/05/27 02:33:06;;;;;;;1.48;1.48;;;;;;;16.60;100.00;96750.94;5106222;28;20047;-57
2023/05/27 02:35:33;;;;;;;1.63;1.63;;;;;;;16.91;99.06;96787.38;5108348;28;20047;-57
2023/05/27 02:37:59;;;;;;;1.60;1.60;;;;;;;16.88;98.02;96782.63;5107891;27;20063;-56
2023/05/27 02:40:27;;;;;;;1.73;1.73;;;;;;;16.97;98.76;96785.69;5108305;28;20555;-58
2023/05/27 02:42:56;;;;;;;1.45;1.45;;;;;;;16.97;97.96;96794.09;5108055;28;20498;-58
2023/05/27 02:45:23;;;;;;;1.70;1.70;;;;;;;17.02;98.24;96799.22;5108325;28;20055;-57
2023/05/27 02:47:50;;;;;;;1.60;1.60;;;;;;;17.10;97.37;96806.34;5108307;28;20052;-56
2023/05/27 02:50:17;;;;;;;1.65;1.65;;;;;;;16.66;98.37;96736.53;5106338;28;20059;-56
2023/05/27 02:52:43;;;;;;;1.60;1.60;;;;;;;17.13;97.59;96799.88;5107499;28;20407;-57
2023/05/27 02:55:10;;;;;;;1.60;1.60;;;;;;;17.08;97.06;96791.94;5106819;28;20047;-56
2023/05/27 02:57:37;;;;;;;1.70;1.70;;;;;;;16.94;98.08;96792.13;5106735;27;20051;-57
2023/05/27 03:00:04;;;;;;;1.42;1.42;;;;;;;17.13;97.27;96795.09;5106934;28;20558;-56
2023/05/27 03:02:31;;;;;;;1.60;1.60;;;;;;;17.07;96.91;96787.56;5106847;28;20048;-57
2023/05/27 03:05:00;;;;;;;1.50;1.50;;;;;;;17.21;97.81;96812.59;5107413;28;20061;-56
2023/05/27 03:07:30;;;;;;;1.60;1.60;;;;;;;17.20;95.95;96817.38;5107629;28;20453;-57
2023/05/27 03:09:57;;;;;;;1.50;1.50;;;;;;;16.67;97.47;96754.88;5107630;28;20126;-57
2023/05/27 03:12:24;;;;;;;1.58;1.58;;;;;;;16.74;96.87;96754.81;5107884;28;20141;-56
2023/05/27 03:14:51;;;;;;;1.70;1.70;;;;;;;17.28;95.85;96832.09;5107805;28;20039;-57
2023/05/27 03:17:19;;;;;;;1.77;1.77;;;;;;;17.22;96.15;96822.56;5105243;27;20609;-57
2023/05/27 03:19:46;;;;;;;1.75;1.75;;;;;;;16.69;96.02;96769.25;5087001;28;20495;-57
2023/05/27 03:22:13;;;;;;;1.65;1.65;;;;;;;16.95;99.79;96816.09;5087183;28;20062;-57
2023/05/27 03:24:40;;;;;;;1.70;1.70;;;;;;;16.91;98.06;96799.38;5086971;28;20055;-58
2023/05/27 03:27:07;;;;;;;1.60;1.60;;;;;;;16.98;97.45;96827.25;5086953;28;20434;-57
2023/05/27 03:29:33;;;;;;;1.50;1.50;;;;;;;16.62;97.51;96770.09;5086815;28;20135;-56
2023/05/27 03:32:00;;;;;;;1.60;1.60;;;;;;;17.13;97.82;96823.09;5086859;28;20051;-58
2023/05/27 03:34:27;;;;;;;1.65;1.65;;;;;;;17.19;95.56;96809.41;5084855;28;20075;-57
2023/05/27 03:36:53;;;;;;;1.58;1.58;;;;;;;17.28;95.89;96823.69;5086557;28;20059;-58
2023/05/27 03:39:20;;;;;;;1.60;1.60;;;;;;;17.26;95.65;96826.91;5085609;28;20514;-57
2023/05/27 03:41:47;;;;;;;1.60;1.60;;;;;;;17.33;96.47;96838.03;5085238;28;20056;-57
2023/05/27 03:44:14;;;;;;;1.60;1.60;;;;;;;17.23;97.20;96832.56;5085176;28;20060;-57
2023/05/27 03:46:41;;;;;;;1.60;1.60;;;;;;;17.27;95.94;96822.91;5083840;28;20074;-56
2023/05/27 03:49:07;;;;;;;1.52;1.52;;;;;;;17.31;97.06;96825.66;5083487;28;20051;-57
2023/05/27 03:51:35;;;;;;;1.60;1.60;;;;;;;17.30;96.38;96832.47;5084986;28;20075;-58
2023/05/27 03:54:02;;;;;;;1.60;1.60;;;;;;;17.16;96.30;96841.03;5084986;28;20503;-57
2023/05/27 03:56:29;;;;;;;1.50;1.50;;;;;;;17.04;97.52;96833.19;5085293;28;20055;-58
2023/05/27 03:58:56;;;;;;;1.65;1.65;;;;;;;17.12;97.90;96848.69;5083664;28;20518;-57
2023/05/27 04:01:23;;;;;;;1.33;1.33;;;;;;;16.89;97.35;96809.38;5084900;28;20521;-56
2023/05/27 04:03:49;;;;;;;1.60;1.60;;;;;;;17.01;98.27;96842.44;5084964;28;20066;-56
2023/05/27 04:06:16;;;;;;;1.67;1.67;;;;;;;17.02;98.02;96849.59;5084655;28;20503;-57
2023/05/27 04:08:43;;;;;;;1.60;1.60;;;;;;;16.94;98.57;96853.69;5084988;28;20052;-57
2023/05/27 04:11:12;;;;;;;1.70;1.70;;;;;;;16.23;98.63;96742.50;5084491;28;20050;-56
2023/05/27 04:13:40;;;;;;;1.50;1.50;;;;;;;16.41;98.22;96754.31;5085089;28;20056;-56
2023/05/27 04:16:07;;;;;;;1.60;1.60;;;;;;;17.03;98.97;96845.59;5084730;28;20048;-56
2023/05/27 04:18:35;;;;;;;1.45;1.45;;;;;;;17.03;98.39;96845.59;5095807;28;20047;-58
2023/05/27 04:21:02;;;;;;;1.50;1.50;;;;;;;17.03;98.22;96840.78;5105086;28;20079;-57
2023/05/27 04:23:29;;;;;;;1.40;1.40;;;;;;;17.19;98.24;96843.00;5105188;28;20063;-56
2023/05/27 04:25:55;;;;;;;1.73;1.73;;;;;;;17.27;98.67;96850.09;5104901;28;20426;-56
2023/05/27 04:28:22;;;;;;;1.52;1.52;;;;;;;17.46;97.86;96852.28;5105146;28;20059;-56
2023/05/27 04:30:50;;;;;;;1.75;1.75;;;;;;;17.45;97.49;96857.09;5103413;28;20048;-57
2023/05/27 04:33:17;;;;;;;1.60;1.60;;;;;;;17.23;98.40;96798.97;5103375;28;20043;-58
2023/05/27 04:35:43;;;;;;;1.60;1.60;;;;;;;17.38;96.10;96808.75;5104642;28;20136;-56
2023/05/27 04:38:15;;;;;;;1.75;1.75;;;;;;;17.74;95.55;96851.91;5061048;28;1249395;-57
2023/05/27 04:40:46;;;;;;;1.50;1.50;;;;;;;17.65;95.67;96837.63;5105869;28;20561;-57
2023/05/27 04:43:14;;;;;;;1.55;1.55;;;;;;;17.70;95.50;96856.78;5106118;28;20083;-56
2023/05/27 04:45:43;;;;;;;1.90;1.90;;;;;;;17.69;95.80;96855.16;5092833;28;20040;-59
2023/05/27 04:48:10;;;;;;;1.70;1.70;;;;;;;17.27;96.03;96771.72;5064660;28;20044;-58
2023/05/27 04:50:37;;;;;;;1.70;1.70;;;;;;;17.83;95.54;96857.81;5064942;28;20070;-57
2023/05/27 04:53:04;;;;;;;1.90;1.90;;;;;;;17.95;93.22;96860.81;5064555;28;20052;-57
2023/05/27 04:55:33;;;;;;;1.70;1.70;;;;;;;17.62;93.46;96816.06;5064356;28;20514;-58
2023/05/27 04:58:03;;;;;;;1.83;1.83;;;;;;;17.50;93.20;96799.81;5064568;28;20507;-58
2023/05/27 05:00:38;;;;;;;1.80;1.80;;;;;;;17.96;92.82;96867.19;5065092;28;20056;-59
2023/05/27 05:03:06;;;;;;;1.90;1.90;;;;;;;18.10;92.25;96864.19;5064482;28;20486;-58
2023/05/27 05:05:34;;;;;;;1.80;1.80;;;;;;;18.15;91.96;96872.13;5064448;28;20131;-57
2023/05/27 05:08:01;;;;;;;1.90;1.90;;;;;;;17.68;92.08;96791.97;5064242;28;20625;-57
2023/05/27 05:10:29;;;;;;;1.60;1.60;;;;;;;18.06;93.06;96874.66;5062995;28;20052;-57
2023/05/27 05:12:56;;;;;;;1.90;1.90;;;;;;;18.03;92.07;96872.72;5064657;28;20053;-57
2023/05/27 05:15:23;;;;;;;1.85;1.85;;;;;;;18.15;91.15;96872.13;5079604;28;20052;-57
2023/05/27 05:17:50;;;;;;;1.75;1.75;;;;;;;18.17;90.68;96875.28;5076056;28;20387;-58
2023/05/27 05:20:17;;;;;;;1.60;1.60;;;;;;;18.25;92.35;96876.78;5105049;28;20044;-59
2023/05/27 05:22:44;;;;;;;1.50;1.50;;;;;;;18.32;91.62;96879.44;5105137;28;20055;-57
2023/05/27 05:25:11;;;;;;;1.45;1.45;;;;;;;18.33;92.20;96878.25;5104438;28;20051;-57
2023/05/27 05:27:38;;;;;;;1.65;1.65;;;;;;;18.42;92.01;96886.13;5104783;28;20554;-57
2023/05/27 05:30:05;;;;;;;1.90;1.90;;;;;;;18.32;92.48;96901.13;5090972;28;20048;-59
2023/05/27 05:32:32;;;;;;;1.80;1.80;;;;;;;18.48;93.10;96888.03;5072125;28;20103;-57
2023/05/27 05:34:59;;;;;;;1.60;1.60;;;;;;;18.62;91.15;96876.56;5064260;28;20466;-57
2023/05/27 05:37:26;;;;;;;1.80;1.80;;;;;;;18.67;91.10;96881.72;5083250;28;20064;-59
2023/05/27 05:39:54;;;;;;;1.77;1.77;;;;;;;18.47;89.92;96829.56;5083883;28;20078;-57
2023/05/27 05:42:21;;;;;;;1.77;1.77;;;;;;;18.88;89.05;96870.09;5082733;28;20051;-58
2023/05/27 05:44:48;;;;;;;1.60;1.60;;;;;;;18.99;88.83;96875.53;5084253;28;20044;-58
2023/05/27 05:47:15;;;;;;;1.92;1.92;;;;;;;18.81;87.52;96836.53;5083378;28;20056;-58
2023/05/27 05:49:41;;;;;;;1.70;1.70;;;;;;;18.63;87.89;96791.19;5075875;28;20052;-58
2023/05/27 05:52:08;;;;;;;1.70;1.70;;;;;;;19.38;85.87;96876.38;5082273;28;20416;-65
2023/05/27 05:54:34;;;;;;;1.63;1.63;;;;;;;19.37;85.44;96846.72;5083931;28;20086;-68
2023/05/27 05:57:02;;;;;;;1.70;1.70;;;;;;;19.68;85.42;96880.22;5083366;28;20056;-58
2023/05/27 05:59:29;;;;;;;2.00;2.00;;;;;;;19.97;85.00;96884.75;5083273;28;20048;-57
2023/05/27 06:01:55;;;;;;;2.05;2.05;;;;;;;19.84;83.62;96894.31;5081166;28;20059;-65
2023/05/27 06:04:22;;;;;;;1.90;1.90;;;;;;;19.88;85.22;96887.38;5080505;28;20571;-60
2023/05/27 06:06:49;;;;;;;1.88;1.88;;;;;;;19.58;83.17;96843.44;5081831;28;20054;-64
2023/05/27 06:09:15;;;;;;;1.80;1.80;;;;;;;19.51;83.33;96857.66;5083720;28;20043;-59
2023/05/27 06:11:42;;;;;;;1.83;1.83;;;;;;;19.92;80.57;96870.41;5080963;28;20048;-63
2023/05/27 06:14:09;;;;;;;2.08;2.08;;;;;;;20.12;82.46;96896.50;5082529;28;20079;-62
2023/05/27 06:16:36;;;;;;;2.00;2.00;;;;;;;20.41;81.48;96891.81;5083460;28;20446;-60
2023/05/27 06:19:02;;;;;;;1.90;1.90;;;;;;;20.29;77.95;96895.31;5083832;28;20063;-58
2023/05/27 06:21:31;;;;;;;2.10;2.10;;;;;;;20.49;75.52;96904.47;5083443;28;20054;-58
2023/05/27 06:23:58;;;;;;;2.10;2.10;;;;;;;20.57;75.41;96905.88;5082467;28;20060;-67
2023/05/27 06:26:27;;;;;;;2.13;2.13;;;;;;;20.70;74.41;96915.22;5083174;28;20056;-67
2023/05/27 06:28:54;;;;;;;1.98;1.98;;;;;;;20.73;74.48;96897.44;5083858;28;20079;-58
2023/05/27 06:31:20;;;;;;;2.30;2.30;;;;;;;20.73;71.87;96903.88;5081835;28;20066;-63
2023/05/27 06:33:47;;;;;;;2.00;2.00;;;;;;;20.83;70.29;96904.84;5083961;28;20048;-59
2023/05/27 06:36:14;;;;;;;1.77;1.77;;;;;;;18.67;71.45;96567.44;5081835;28;20071;-59
2023/05/27 06:38:41;;;;;;;2.13;2.13;;;;;;;20.88;69.47;96915.59;5081891;28;20145;-59
2023/05/27 06:41:07;;;;;;;2.10;2.10;;;;;;;20.62;70.29;96880.03;5083220;28;20672;-65
2023/05/27 06:43:34;;;;;;;2.30;2.30;;;;;;;20.91;69.02;96909.06;5083626;28;20506;-58
2023/05/27 06:46:01;;;;;;;1.88;1.88;;;;;;;20.77;70.33;96886.91;5083814;28;20425;-58
2023/05/27 06:48:31;;;;;;;2.25;2.25;;;;;;;21.01;68.77;96919.28;5083624;28;20048;-63
2023/05/27 06:50:58;;;;;;;2.05;2.05;;;;;;;20.63;67.86;96867.53;5082109;28;20044;-67
2023/05/27 06:53:24;;;;;;;2.15;2.15;;;;;;;19.54;68.42;96691.00;5083054;28;20055;-64
2023/05/27 06:55:51;;;;;;;2.00;2.00;;;;;;;21.25;68.92;96917.84;5081856;28;20709;-63
2023/05/27 06:58:18;;;;;;;1.83;1.83;;;;;;;20.15;68.92;96856.28;5077459;28;20054;-63
2023/05/27 07:00:45;;;;;;;1.90;1.90;;;;;;;20.56;71.06;96860.09;5063520;28;20059;-56
2023/05/27 07:03:12;;;;;;;1.90;1.90;;;;;;;20.87;67.93;96917.59;5062890;28;20080;-60
2023/05/27 07:05:38;;;;;;;2.00;2.00;;;;;;;20.61;67.71;96907.38;5063276;28;20492;-63
2023/05/27 07:08:05;;;;;;;2.05;2.05;;;;;;;20.70;68.61;96915.22;5062792;28;20088;-59
2023/05/27 07:10:32;;;;;;;2.20;2.20;;;;;;;20.96;68.40;96911.34;5063394;28;20064;-60
2023/05/27 07:12:59;;;;;;;2.20;2.20;;;;;;;20.66;69.21;96869.50;5062617;28;20052;-65
2023/05/27 07:15:27;;;;;;;2.45;2.35;;;;;;;21.25;66.02;96909.38;5063441;28;20056;-60
2023/05/27 07:17:53;;;;;;;2.35;2.33;;;;;;;21.19;68.88;96905.53;5068146;28;20592;-59
2023/05/27 07:20:20;;;;;;;2.03;2.03;;;;;;;21.10;66.64;96905.38;5107741;28;20056;-63
2023/05/27 07:22:47;;;;;;;2.50;2.40;;;;;;;20.73;65.06;96914.34;5105929;28;20091;-69
2023/05/27 07:25:14;;;;;;;2.00;2.00;;;;;;;19.95;68.51;96897.69;5107376;28;20132;-58
2023/05/27 07:27:41;;;;;;;1.88;1.88;;;;;;;19.25;66.99;96765.09;5107455;27;20169;-75
2023/05/27 07:30:08;;;;;;;1.75;1.75;;;;;;;19.16;69.64;96858.34;5107145;28;20050;-60
2023/05/27 07:32:35;;;;;;;1.80;1.80;;;;;;;19.89;70.68;96919.09;5107070;27;20451;-62
2023/05/27 07:35:02;;;;;;;1.60;1.60;;;;;;;19.50;70.75;96922.72;5106924;28;20104;-57
2023/05/27 07:37:30;;;;;;;1.73;1.73;;;;;;;19.31;72.29;96915.06;5106622;28;20063;-65
2023/05/27 07:39:57;;;;;;;2.00;2.00;;;;;;;19.48;72.87;96889.44;5107147;28;20517;-69
2023/05/27 07:42:23;;;;;;;1.70;1.70;;;;;;;19.20;70.77;96898.41;5106553;28;20109;-70
2023/05/27 07:44:50;;;;;;;1.50;1.50;;;;;;;19.23;70.12;96925.63;5107076;28;20052;-70
2023/05/27 07:47:17;;;;;;;1.58;1.58;;;;;;;18.45;71.34;96874.88;5106505;28;20419;-66
2023/05/27 07:49:43;;;;;;;1.65;1.65;;;;;;;18.76;73.49;96926.06;5107191;28;20086;-63
2023/05/27 07:52:10;;;;;;;1.80;1.80;;;;;;;18.57;74.92;96910.75;5094525;27;20079;-57
2023/05/27 07:54:37;;;;;;;1.90;1.90;;;;;;;18.09;74.30;96817.75;5086400;28;20052;-68
2023/05/27 07:57:19;;;;;;;1.65;1.65;;;;;;;18.42;75.19;96931.81;5085566;28;20048;-65
2023/05/27 07:59:46;;;;;;;1.70;1.70;;;;;;;18.14;76.39;96921.00;5086592;28;20051;-60
2023/05/27 08:02:12;;;;;;;1.60;1.60;;;;;;;17.73;78.35;96889.56;5085915;28;20048;-68
2023/05/27 08:04:40;;;;;;;1.67;1.67;;;;;;;18.13;79.32;96913.03;5086295;28;20467;-65
2023/05/27 08:07:06;;;;;;;1.52;1.52;;;;;;;18.06;81.13;96908.31;5086161;28;20071;-65
2023/05/27 08:09:33;;;;;;;1.80;1.80;;;;;;;18.25;79.72;96915.22;5086510;28;20071;-60
2023/05/27 08:12:00;;;;;;;1.67;1.67;;;;;;;18.20;78.76;96860.44;5086111;28;20070;-62
2023/05/27 08:14:27;;;;;;;1.80;1.80;;;;;;;18.25;76.66;96876.78;5084527;28;20052;-57
2023/05/27 08:16:54;;;;;;;1.75;1.75;;;;;;;19.02;77.40;96914.78;5083619;28;20126;-62
2023/05/27 08:19:21;;;;;;;1.75;1.75;;;;;;;18.82;75.50;96927.97;5097310;28;20585;-58
2023/05/27 08:21:48;;;;;;;1.67;1.67;;;;;;;18.94;76.05;96912.50;5091976;28;20048;-60
2023/05/27 08:24:15;;;;;;;2.00;2.00;;;;;;;19.46;76.75;96928.41;5074317;28;20506;-67
2023/05/27 08:26:41;;;;;;;1.80;1.80;;;;;;;19.76;76.12;96921.00;5083988;28;20059;-60
2023/05/27 08:29:08;;;;;;;1.90;1.90;;;;;;;18.50;73.47;96804.25;5079650;28;20060;-58
2023/05/27 08:31:35;;;;;;;1.80;1.80;;;;;;;19.22;75.92;96929.63;5064090;28;20076;-59
2023/05/27 08:34:03;;;;;;;1.70;1.70;;;;;;;19.47;77.68;96946.84;5064950;28;20063;-59
2023/05/27 08:36:31;;;;;;;1.80;1.80;;;;;;;19.68;78.04;96944.84;5065100;28;20061;-62
2023/05/27 08:38:58;;;;;;;1.77;1.77;;;;;;;19.36;76.35;96904.09;5062774;28;20670;-67
2023/05/27 08:41:27;;;;;;;1.70;1.70;;;;;;;19.40;76.23;96946.19;5083399;28;20048;-70
2023/05/27 08:43:54;;;;;;;1.67;1.67;;;;;;;18.62;75.81;96854.13;5084785;28;20063;-67
2023/05/27 08:46:41;;;;;;;1.77;1.77;;;;;;;18.90;75.77;96873.28;5084235;28;20047;-58
2023/05/27 08:49:08;;;;;;;1.77;1.77;;;;;;;17.74;75.53;96650.19;5084453;28;20566;-73
2023/05/27 08:51:38;;;;;;;1.80;1.80;;;;;;;18.90;74.66;96845.22;5083658;28;20306;-61
2023/05/27 08:54:05;;;;;;;1.70;1.70;;;;;;;19.54;73.29;96946.72;5085116;28;20122;-61
2023/05/27 08:56:33;;;;;;;2.00;2.00;;;;;;;20.06;74.48;96940.44;5084767;28;20087;-67
2023/05/27 08:59:00;;;;;;;1.80;1.80;;;;;;;19.96;72.11;96944.25;5083377;28;20056;-57
2023/05/27 09:01:28;;;;;;;2.03;2.03;;;;;;;19.75;75.52;96865.97;5085118;28;20055;-64
2023/05/27 09:03:55;;;;;;;1.90;1.90;;;;;;;19.84;72.69;96936.50;5084602;28;20044;-60
2023/05/27 09:06:22;;;;;;;1.70;1.70;;;;;;;20.25;74.88;96934.00;5084798;28;20131;-58
2023/05/27 09:08:49;;;;;;;2.10;2.10;;;;;;;20.70;75.89;96943.38;5084876;28;20057;-68
2023/05/27 09:11:22;;;;;;;1.98;1.98;;;;;;;20.89;71.61;96945.31;5084642;28;20056;-59
2023/05/27 09:13:49;;;;;;;1.90;1.90;;;;;;;20.92;69.29;96927.53;5084355;28;20209;-59
2023/05/27 09:16:20;;;;;;;1.90;1.90;;;;;;;21.42;70.88;96939.09;5080004;28;20528;-58
2023/05/27 09:18:48;;;;;;;1.83;1.83;;;;;;;20.81;70.51;96921.38;5073817;28;20079;-66
2023/05/27 09:21:15;;;;;;;1.90;1.90;;;;;;;20.53;72.97;96996.03;5086010;28;20053;-58
2023/05/27 09:23:42;;;;;;;1.95;1.95;;;;;;;20.94;70.90;96947.63;5061343;28;20048;-60
2023/05/27 09:26:10;;;;;;;1.95;1.95;;;;;;;20.82;69.32;96943.47;5062460;28;20079;-58
2023/05/27 09:28:37;;;;;;;2.03;2.03;;;;;;;20.40;70.38;96943.69;5062302;28;20056;-71
2023/05/27 09:31:06;;;;;;;1.73;1.73;;;;;;;20.44;74.09;96947.22;5062386;28;20148;-72
2023/05/27 09:33:38;;;;;;;2.08;2.08;;;;;;;20.44;73.84;96941.56;5062554;28;20442;-66
2023/05/27 09:36:08;;;;;;;1.95;1.95;;;;;;;20.65;72.64;96946.72;5063930;28;20059;-60
2023/05/27 09:38:36;;;;;;;2.20;2.20;;;;;;;19.93;70.51;96894.50;5064230;28;20102;-59
2023/05/27 09:41:03;;;;;;;2.00;2.00;;;;;;;20.15;70.73;96941.47;5078341;28;20106;-74
2023/05/27 09:43:30;;;;;;;1.90;1.90;;;;;;;19.93;73.83;96894.50;5064175;28;20063;-70
2023/05/27 09:46:02;;;;;;;1.90;1.90;;;;;;;19.79;73.67;96877.97;5062422;28;20055;-72
2023/05/27 09:48:33;;;;;;;1.90;1.90;;;;;;;20.02;72.58;96928.44;5064111;28;20052;-70
2023/05/27 09:51:01;;;;;;;1.67;1.67;;;;;;;19.08;72.09;96872.94;5063693;28;20064;-59
2023/05/27 09:53:28;;;;;;;1.85;1.85;;;;;;;19.65;73.36;96928.84;5067140;28;20056;-58
2023/05/27 09:55:56;;;;;;;1.80;1.80;;;;;;;19.69;73.04;96918.31;5069174;28;20118;-72
2023/05/27 09:58:24;;;;;;;1.90;1.90;;;;;;;19.75;73.34;96899.72;5088650;28;20076;-65
2023/05/27 10:00:52;;;;;;;2.00;2.00;;;;;;;19.96;72.84;96890.81;5063784;28;20541;-72
2023/05/27 10:03:23;;;;;;;1.88;1.88;;;;;;;19.92;73.18;96907.78;5063188;28;20126;-63
2023/05/27 10:05:51;;;;;;;1.88;1.88;;;;;;;20.05;73.21;96919.94;5076436;28;20135;-59
2023/05/27 10:08:19;;;;;;;1.70;1.70;;;;;;;19.86;74.16;96905.91;5084203;28;20044;-57
2023/05/27 10:10:49;;;;;;;2.05;2.05;;;;;;;20.04;73.11;96906.31;5082851;28;20052;-64
2023/05/27 10:13:19;;;;;;;2.00;2.00;;;;;;;19.95;73.47;96903.31;5081655;28;20056;-68
2023/05/27 10:15:51;;;;;;;1.90;1.90;;;;;;;20.09;73.14;96897.38;5083659;28;20154;-64
2023/05/27 10:18:29;;;;;;;1.80;1.80;;;;;;;20.02;73.34;96891.91;5080882;28;20044;-65
2023/05/27 10:20:58;;;;;;;1.67;1.67;;;;;;;20.07;73.02;96888.56;5064088;28;20086;-65
2023/05/27 10:23:27;;;;;;;1.85;1.85;;;;;;;20.28;73.11;96888.88;5061599;28;20135;-58
2023/05/27 10:26:05;;;;;;;1.80;1.80;;;;;;;20.09;73.18;96886.13;5066721;28;20474;-66
2023/05/27 10:28:36;;;;;;;1.77;1.77;;;;;;;20.52;72.49;96886.72;5077436;28;20036;-67
2023/05/27 10:31:11;;;;;;;1.92;1.92;;;;;;;20.53;72.08;96888.31;5061350;28;20049;-69
2023/05/27 10:33:49;;;;;;;1.75;1.75;;;;;;;20.17;73.70;96893.97;5063572;28;20591;-75
2023/05/27 10:36:21;;;;;;;1.92;1.92;;;;;;;19.99;73.15;96859.03;5066001;28;20408;-68
2023/05/27 10:38:56;;;;;;;1.80;1.80;;;;;;;20.46;73.81;96894.09;5061829;28;20053;-60
2023/05/27 10:41:23;;;;;;;2.03;2.03;;;;;;;20.08;72.09;96845.16;5072777;28;20201;-73
2023/05/27 10:43:57;;;;;;;1.85;1.85;;;;;;;20.60;71.06;96900.19;5070944;28;20511;-59
2023/05/27 10:46:24;;;;;;;2.00;2.00;;;;;;;20.09;71.58;96808.16;5078555;28;20109;-71
2023/05/27 10:48:51;;;;;;;1.80;1.80;;;;;;;20.34;73.76;96858.22;5084097;28;20192;-59
2023/05/27 10:51:18;;;;;;;1.90;1.90;;;;;;;20.14;72.49;96837.81;5081752;28;20059;-73
2023/05/27 10:53:46;;;;;;;2.20;2.20;;;;;;;19.97;72.70;96805.22;5077163;28;20049;-61
2023/05/27 10:56:21;;;;;;;2.00;2.00;;;;;;;20.67;70.85;96910.47;5066373;28;20133;-73
2023/05/27 10:58:49;;;;;;;1.70;1.70;;;;;;;20.60;71.12;96910.63;5060614;28;20044;-70
2023/05/27 11:01:16;;;;;;;2.05;2.05;;;;;;;20.42;72.07;96842.75;5087297;28;20536;-79
2023/05/27 11:03:45;;;;;;;1.77;1.77;;;;;;;20.75;70.25;96906.25;5080994;28;20556;-59
2023/05/27 11:06:13;;;;;;;2.03;2.03;;;;;;;20.86;70.42;96912.41;5074825;28;20098;-71
2023/05/27 11:08:40;;;;;;;2.00;2.00;;;;;;;20.43;71.05;96872.47;5085542;28;20142;-59
2023/05/27 11:11:10;;;;;;;1.95;1.95;;;;;;;20.60;71.89;96913.44;5087501;27;20075;-63
2023/05/27 11:13:42;;;;;;;2.00;2.00;;;;;;;20.84;71.19;96912.06;5087753;28;20048;-73
2023/05/27 11:16:14;;;;;;;2.22;2.22;;;;;;;21.17;72.29;96896.72;5086706;28;20101;-57
2023/05/27 11:18:47;;;;;;;2.13;2.13;;;;;;;21.33;70.47;96885.41;5086542;28;20062;-60
2023/05/27 11:21:16;;;;;;;2.15;2.15;;;;;;;21.63;68.29;96893.41;5084647;28;20109;-67
2023/05/27 11:23:48;;;;;;;2.00;2.00;;;;;;;20.89;69.83;96900.25;5086352;28;20084;-59
2023/05/27 11:26:25;;;;;;;1.90;1.90;;;;;;;20.68;69.29;96844.50;5079735;28;20058;-69
2023/05/27 11:28:58;;;;;;;2.60;2.50;;;;;;;21.42;69.90;96860.19;5085213;28;20059;-58
2023/05/27 11:31:29;;;;;;;2.30;2.30;;;;;;;21.84;67.53;96878.75;5083353;28;20047;-60
2023/05/27 11:33:57;;;;;;;2.22;2.22;;;;;;;22.06;66.81;96876.06;5085850;28;20501;-59
2023/05/27 11:36:28;;;;;;;2.30;2.30;;;;;;;22.30;65.56;96880.13;5081346;28;20062;-69